Bluefield, WV

11:51 PM EST on January 25, 2015 (GMT -0500)
South Bluefield | Change Station
CLOSE
Current Station
Personal Weather Station
Location: Bluefield, WV
Elevation: 2700 ft
Nearby Weather Stations

Elev 2700 ft 37.26 °N, 81.20 °W | Updated 10 seconds ago

Overcast
Overcast
40.3 °F
Feels Like 40 °F
N
0.0
Wind Variable Wind from WSW
Gusts 0.0 mph

Today
High -- | Low -- °F
--% Chance of Precip.
Yesterday
High -- | Low -- °F
Precip. -- in
7:33 AM 5:41 PM
Waxing Crescent, 39% visible
Pressure 29.69 in
Visibility 10.0 miles
Clouds Mostly Cloudy 5500 ft
Mostly Cloudy 7500 ft
Overcast 9500 ft
Windchill 40 °F
Dew Point 29 °F
Humidity 64%
Rainfall 0.07 in
Snow Depth Not available.
UV 0 out of 12
Pollen .10 out of 12
Air Quality Not available.
Flu Activity Not available.
METAR KBLF 260352Z AUTO 18004KT 10SM BKN055 BKN075 OVC095 06/M03 A2968 RMK AO2 SLP052 T00611028

More Conditions Fewer Conditions

Pressure 29.69 in
Visibility 10.0 miles
Clouds Mostly Cloudy 5500 ft
Mostly Cloudy 7500 ft
Overcast 9500 ft
Windchill 40 °F
Dew Point 29 °F
Humidity 64%
Rainfall 0.07 in
Snow Depth Not available.
UV 0 out of 12
Pollen .10 out of 12
Air Quality Not available.
Flu Activity Not available.
METAR KBLF 260352Z AUTO 18004KT 10SM BKN055 BKN075 OVC095 06/M03 A2968 RMK AO2 SLP052 T00611028

More Conditions Fewer Conditions

10-Day Weather Forecast

Almanac

Astronomy

Jan. 25, 2015 Rise Set
Actual Time
Civil Twilight
Nautical Twilight
Astronomical Twilight
Moon
Length of Visible Light
Length of Day
Tomorrow will be .
, % of the Moon is Illuminated

Today's Extremes

State Highs State Lows

Community

WunderPhotos

Upload Photos

1,790,139 photos uploaded!

WunderBlogs® & News

Nearby

Air Quality

  Air Quality AQ Index Pollutant
Not available.

Snow Depth

Station Depth Elevation

Earthquake Activity

City Distance Mag. Time & Date
Minimum magnitude displayed is 2.5.

Coastal Water Temperatures

Place Temperature

Nearby Weather Stations